Terminal Aerodrome Forecast
Issued by NWS

Home | Current Version | Previous Version | Text Only | Print | Product List | Glossary On
Versions: 1 2 3 4 5 6 7 8 9 10 11 12 13 14 15 16 17 18 19 20 21 22 23 24 25 26
000
FTUS46 KSEW 020600 AAA
TAFSEA
TAF AMD
KSEA 020606Z 0206/0312 VRB03KT P6SM FEW010 OVC030
     FM021200 19005KT P6SM OVC025
     FM021900 21008KT P6SM BKN035 BKN200
     FM022100 23008KT P6SM SCT050 SCT110 BKN200 PROB30 0221/0302
      -SHRA OVC050
     FM030200 20006KT P6SM SCT050 BKN110 OVC200=

USA.gov is the U.S. government's official web portal to all federal, state and local government web resources and services.